sensor_id;sensor_type;location;lat;lon;timestamp;pressure;altitude;pressure_sealevel;temperature;humidity
54262;BME280;40174;52.364;6.452;2023-09-07T00:00:29;101834.81;;;18.47;100.00
54262;BME280;40174;52.364;6.452;2023-09-07T00:02:56;101831.78;;;18.42;100.00
54262;BME280;40174;52.364;6.452;2023-09-07T00:05:25;101831.06;;;18.40;100.00
54262;BME280;40174;52.364;6.452;2023-09-07T00:07:52;101833.38;;;18.35;100.00
54262;BME280;40174;52.364;6.452;2023-09-07T00:10:18;101830.97;;;18.32;100.00
54262;BME280;40174;52.364;6.452;2023-09-07T00:12:45;101824.97;;;18.30;100.00
54262;BME280;40174;52.364;6.452;2023-09-07T00:15:13;101828.59;;;18.28;100.00
54262;BME280;40174;52.364;6.452;2023-09-07T00:17:40;101830.72;;;18.25;100.00
54262;BME280;40174;52.364;6.452;2023-09-07T00:20:07;101822.88;;;18.23;100.00
54262;BME280;40174;52.364;6.452;2023-09-07T00:22:37;101825.81;;;18.20;100.00
54262;BME280;40174;52.364;6.452;2023-09-07T00:25:05;101828.81;;;18.17;100.00
54262;BME280;40174;52.364;6.452;2023-09-07T00:27:32;101825.88;;;18.11;100.00
54262;BME280;40174;52.364;6.452;2023-09-07T00:29:59;101831.53;;;18.07;100.00
54262;BME280;40174;52.364;6.452;2023-09-07T00:32:27;101832.81;;;18.03;100.00
54262;BME280;40174;52.364;6.452;2023-09-07T00:34:53;101825.63;;;18.04;100.00
54262;BME280;40174;52.364;6.452;2023-09-07T00:37:20;101818.88;;;18.00;100.00
54262;BME280;40174;52.364;6.452;2023-09-07T00:39:47;101825.53;;;17.96;100.00
54262;BME280;40174;52.364;6.452;2023-09-07T00:42:13;101822.84;;;17.96;100.00
54262;BME280;40174;52.364;6.452;2023-09-07T00:44:40;101821.31;;;17.93;100.00
54262;BME280;40174;52.364;6.452;2023-09-07T00:47:09;101824.84;;;17.94;100.00
54262;BME280;40174;52.364;6.452;2023-09-07T00:49:38;101823.28;;;17.91;100.00
54262;BME280;40174;52.364;6.452;2023-09-07T00:52:05;101829.06;;;17.86;100.00
54262;BME280;40174;52.364;6.452;2023-09-07T00:54:32;101825.16;;;17.81;100.00
54262;BME280;40174;52.364;6.452;2023-09-07T00:56:59;101821.78;;;17.79;100.00
54262;BME280;40174;52.364;6.452;2023-09-07T00:59:27;101822.75;;;17.78;100.00
54262;BME280;40174;52.364;6.452;2023-09-07T01:01:53;101817.84;;;17.73;100.00
54262;BME280;40174;52.364;6.452;2023-09-07T01:04:20;101817.84;;;17.73;100.00
54262;BME280;40174;52.364;6.452;2023-09-07T01:06:54;101821.66;;;17.71;100.00
54262;BME280;40174;52.364;6.452;2023-09-07T01:09:24;101821.94;;;17.67;100.00
54262;BME280;40174;52.364;6.452;2023-09-07T01:11:52;101816.03;;;17.64;100.00
54262;BME280;40174;52.364;6.452;2023-09-07T01:14:19;101818.44;;;17.57;100.00
54262;BME280;40174;52.364;6.452;2023-09-07T01:16:48;101813.28;;;17.56;100.00
54262;BME280;40174;52.364;6.452;2023-09-07T01:19:16;101813.00;;;17.49;100.00
54262;BME280;40174;52.364;6.452;2023-09-07T01:21:44;101813.13;;;17.48;100.00
54262;BME280;40174;52.364;6.452;2023-09-07T01:24:13;101808.38;;;17.41;100.00
54262;BME280;40174;52.364;6.452;2023-09-07T01:26:41;101805.69;;;17.41;100.00
54262;BME280;40174;52.364;6.452;2023-09-07T01:29:08;101805.69;;;17.41;100.00
54262;BME280;40174;52.364;6.452;2023-09-07T01:31:35;101806.69;;;17.40;100.00
54262;BME280;40174;52.364;6.452;2023-09-07T01:34:03;101804.16;;;17.39;100.00
54262;BME280;40174;52.364;6.452;2023-09-07T01:36:32;101799.25;;;17.34;100.00
54262;BME280;40174;52.364;6.452;2023-09-07T01:39:02;101798.00;;;17.29;100.00
54262;BME280;40174;52.364;6.452;2023-09-07T01:41:29;101801.94;;;17.24;100.00
54262;BME280;40174;52.364;6.452;2023-09-07T01:43:56;101799.84;;;17.18;100.00
54262;BME280;40174;52.364;6.452;2023-09-07T01:46:23;101806.72;;;17.21;100.00
54262;BME280;40174;52.364;6.452;2023-09-07T01:48:49;101798.84;;;17.19;100.00
54262;BME280;40174;52.364;6.452;2023-09-07T01:51:16;101799.13;;;17.16;100.00
54262;BME280;40174;52.364;6.452;2023-09-07T01:53:43;101791.25;;;17.15;100.00
54262;BME280;40174;52.364;6.452;2023-09-07T01:56:11;101799.28;;;17.15;100.00
54262;BME280;40174;52.364;6.452;2023-09-07T01:58:38;101795.50;;;17.08;100.00
54262;BME280;40174;52.364;6.452;2023-09-07T02:01:06;101795.09;;;17.02;100.00
54262;BME280;40174;52.364;6.452;2023-09-07T02:03:33;101804.75;;;17.03;100.00
54262;BME280;40174;52.364;6.452;2023-09-07T02:06:00;101797.03;;;17.00;100.00
54262;BME280;40174;52.364;6.452;2023-09-07T02:08:27;101793.25;;;16.93;100.00
54262;BME280;40174;52.364;6.452;2023-09-07T02:10:54;101794.09;;;16.94;100.00
54262;BME280;40174;52.364;6.452;2023-09-07T02:13:23;101800.44;;;16.93;100.00
54262;BME280;40174;52.364;6.452;2023-09-07T02:15:49;101799.03;;;16.89;100.00
54262;BME280;40174;52.364;6.452;2023-09-07T02:18:16;101798.88;;;16.80;100.00
54262;BME280;40174;52.364;6.452;2023-09-07T02:20:43;101797.88;;;16.81;100.00
54262;BME280;40174;52.364;6.452;2023-09-07T02:23:11;101797.03;;;16.81;100.00
54262;BME280;40174;52.364;6.452;2023-09-07T02:25:37;101794.53;;;16.79;100.00
54262;BME280;40174;52.364;6.452;2023-09-07T02:28:05;101790.56;;;16.74;100.00
54262;BME280;40174;52.364;6.452;2023-09-07T02:30:33;101800.28;;;16.75;100.00
54262;BME280;40174;52.364;6.452;2023-09-07T02:33:00;101791.56;;;16.73;100.00
54262;BME280;40174;52.364;6.452;2023-09-07T02:35:27;101789.84;;;16.72;100.00
54262;BME280;40174;52.364;6.452;2023-09-07T02:37:54;101793.66;;;16.69;100.00
54262;BME280;40174;52.364;6.452;2023-09-07T02:40:21;101796.59;;;16.66;100.00
54262;BME280;40174;52.364;6.452;2023-09-07T02:42:49;101783.69;;;16.61;100.00
54262;BME280;40174;52.364;6.452;2023-09-07T02:45:15;101794.91;;;16.55;100.00
54262;BME280;40174;52.364;6.452;2023-09-07T02:47:43;101787.44;;;16.49;100.00
54262;BME280;40174;52.364;6.452;2023-09-07T02:50:12;101792.06;;;16.47;100.00
54262;BME280;40174;52.364;6.452;2023-09-07T02:52:41;101796.44;;;16.48;100.00
54262;BME280;40174;52.364;6.452;2023-09-07T02:55:08;101796.56;;;16.47;100.00
54262;BME280;40174;52.364;6.452;2023-09-07T02:57:35;101795.03;;;16.44;100.00
54262;BME280;40174;52.364;6.452;2023-09-07T03:00:02;101796.69;;;16.45;100.00
54262;BME280;40174;52.364;6.452;2023-09-07T03:02:35;101792.63;;;16.41;100.00
54262;BME280;40174;52.364;6.452;2023-09-07T03:05:04;101793.75;;;16.38;100.00
54262;BME280;40174;52.364;6.452;2023-09-07T03:07:32;101791.94;;;16.39;100.00
54262;BME280;40174;52.364;6.452;2023-09-07T03:09:59;101794.88;;;16.36;100.00
54262;BME280;40174;52.364;6.452;2023-09-07T03:12:27;101793.44;;;16.32;100.00
54262;BME280;40174;52.364;6.452;2023-09-07T03:14:54;101788.41;;;16.29;100.00
54262;BME280;40174;52.364;6.452;2023-09-07T03:17:21;101793.72;;;16.29;100.00
54262;BME280;40174;52.364;6.452;2023-09-07T03:19:48;101794.69;;;16.28;100.00
54262;BME280;40174;52.364;6.452;2023-09-07T03:22:16;101797.66;;;16.25;100.00
54262;BME280;40174;52.364;6.452;2023-09-07T03:24:43;101796.81;;;16.24;100.00
54262;BME280;40174;52.364;6.452;2023-09-07T03:27:10;101799.59;;;16.23;100.00
54262;BME280;40174;52.364;6.452;2023-09-07T03:29:37;101790.19;;;16.18;100.00
54262;BME280;40174;52.364;6.452;2023-09-07T03:32:05;101794.13;;;16.14;100.00
54262;BME280;40174;52.364;6.452;2023-09-07T03:34:34;101794.38;;;16.11;100.00
54262;BME280;40174;52.364;6.452;2023-09-07T03:37:00;101797.34;;;16.08;100.00
54262;BME280;40174;52.364;6.452;2023-09-07T03:39:29;101794.78;;;16.07;100.00
54262;BME280;40174;52.364;6.452;2023-09-07T03:41:56;101796.91;;;16.03;100.00
54262;BME280;40174;52.364;6.452;2023-09-07T03:44:22;101804.91;;;16.03;100.00
54262;BME280;40174;52.364;6.452;2023-09-07T03:46:49;101798.00;;;16.00;100.00
54262;BME280;40174;52.364;6.452;2023-09-07T03:49:16;101803.06;;;16.04;100.00
54262;BME280;40174;52.364;6.452;2023-09-07T03:51:44;101804.31;;;15.99;100.00
54262;BME280;40174;52.364;6.452;2023-09-07T03:54:11;101801.78;;;15.98;100.00
54262;BME280;40174;52.364;6.452;2023-09-07T03:56:39;101810.19;;;15.93;100.00
54262;BME280;40174;52.364;6.452;2023-09-07T03:59:07;101803.03;;;15.94;100.00
54262;BME280;40174;52.364;6.452;2023-09-07T04:01:34;101798.97;;;15.90;100.00
54262;BME280;40174;52.364;6.452;2023-09-07T04:04:01;101802.59;;;15.89;100.00
54262;BME280;40174;52.364;6.452;2023-09-07T04:06:28;101802.28;;;15.82;100.00
54262;BME280;40174;52.364;6.452;2023-09-07T04:08:55;101799.91;;;15.79;100.00
54262;BME280;40174;52.364;6.452;2023-09-07T04:11:22;101800.84;;;15.78;100.00
54262;BME280;40174;52.364;6.452;2023-09-07T04:13:50;101798.19;;;15.78;100.00
54262;BME280;40174;52.364;6.452;2023-09-07T04:16:16;101804.78;;;15.74;100.00
54262;BME280;40174;52.364;6.452;2023-09-07T04:18:44;101792.53;;;15.71;100.00
54262;BME280;40174;52.364;6.452;2023-09-07T04:21:11;101796.06;;;15.72;100.00
54262;BME280;40174;52.364;6.452;2023-09-07T04:23:38;101791.59;;;15.72;100.00
54262;BME280;40174;52.364;6.452;2023-09-07T04:26:06;101796.44;;;15.67;100.00
54262;BME280;40174;52.364;6.452;2023-09-07T04:28:34;101804.16;;;15.70;100.00
54262;BME280;40174;52.364;6.452;2023-09-07T04:31:03;101793.63;;;15.69;100.00
54262;BME280;40174;52.364;6.452;2023-09-07T04:33:30;101800.06;;;15.66;100.00
54262;BME280;40174;52.364;6.452;2023-09-07T04:35:58;101805.53;;;15.65;100.00
54262;BME280;40174;52.364;6.452;2023-09-07T04:38:32;101804.81;;;15.63;100.00
54262;BME280;40174;52.364;6.452;2023-09-07T04:41:05;101803.41;;;15.58;100.00
54262;BME280;40174;52.364;6.452;2023-09-07T04:43:32;101806.06;;;15.58;100.00
54262;BME280;40174;52.364;6.452;2023-09-07T04:46:00;101802.69;;;15.56;100.00
54262;BME280;40174;52.364;6.452;2023-09-07T04:48:28;101796.66;;;15.54;100.00
54262;BME280;40174;52.364;6.452;2023-09-07T04:50:57;101803.22;;;15.50;100.00
54262;BME280;40174;52.364;6.452;2023-09-07T04:53:24;101802.50;;;15.48;100.00
54262;BME280;40174;52.364;6.452;2023-09-07T04:55:51;101795.91;;;15.43;100.00
54262;BME280;40174;52.364;6.452;2023-09-07T04:58:18;101796.13;;;15.39;100.00
54262;BME280;40174;52.364;6.452;2023-09-07T05:00:44;101794.59;;;15.37;100.00
54262;BME280;40174;52.364;6.452;2023-09-07T05:03:11;101807.06;;;15.36;100.00
54262;BME280;40174;52.364;6.452;2023-09-07T05:05:41;101808.75;;;15.37;100.00
54262;BME280;40174;52.364;6.452;2023-09-07T05:08:07;101802.69;;;15.35;100.00
54262;BME280;40174;52.364;6.452;2023-09-07T05:10:34;101816.00;;;15.35;100.00
54262;BME280;40174;52.364;6.452;2023-09-07T05:13:02;101805.50;;;15.34;100.00
54262;BME280;40174;52.364;6.452;2023-09-07T05:15:29;101810.69;;;15.35;100.00
54262;BME280;40174;52.364;6.452;2023-09-07T05:17:56;101815.28;;;15.33;100.00
54262;BME280;40174;52.364;6.452;2023-09-07T05:20:22;101815.28;;;15.33;100.00
54262;BME280;40174;52.364;6.452;2023-09-07T05:22:50;101818.94;;;15.32;100.00
54262;BME280;40174;52.364;6.452;2023-09-07T05:25:17;101817.13;;;15.33;100.00
54262;BME280;40174;52.364;6.452;2023-09-07T05:27:45;101825.38;;;15.30;100.00
54262;BME280;40174;52.364;6.452;2023-09-07T05:30:12;101821.16;;;15.27;100.00
54262;BME280;40174;52.364;6.452;2023-09-07T05:32:39;101829.00;;;15.29;100.00
54262;BME280;40174;52.364;6.452;2023-09-07T05:35:07;101824.66;;;15.28;100.00
54262;BME280;40174;52.364;6.452;2023-09-07T05:37:35;101824.56;;;15.29;100.00
54262;BME280;40174;52.364;6.452;2023-09-07T05:40:04;101822.00;;;15.28;100.00
54262;BME280;40174;52.364;6.452;2023-09-07T05:42:32;101824.56;;;15.29;100.00
54262;BME280;40174;52.364;6.452;2023-09-07T05:44:59;101817.28;;;15.31;100.00
54262;BME280;40174;52.364;6.452;2023-09-07T05:47:26;101824.88;;;15.36;100.00
54262;BME280;40174;52.364;6.452;2023-09-07T05:49:54;101823.75;;;15.38;100.00
54262;BME280;40174;52.364;6.452;2023-09-07T05:52:21;101822.94;;;15.38;100.00
54262;BME280;40174;52.364;6.452;2023-09-07T05:54:47;101828.09;;;15.39;100.00
54262;BME280;40174;52.364;6.452;2023-09-07T05:57:15;101826.03;;;15.43;100.00
54262;BME280;40174;52.364;6.452;2023-09-07T05:59:42;101829.03;;;15.50;100.00
54262;BME280;40174;52.364;6.452;2023-09-07T06:02:09;101837.84;;;15.50;100.00
54262;BME280;40174;52.364;6.452;2023-09-07T06:04:36;101841.81;;;15.56;100.00
54262;BME280;40174;52.364;6.452;2023-09-07T06:07:03;101832.00;;;15.56;100.00
54262;BME280;40174;52.364;6.452;2023-09-07T06:09:30;101830.91;;;15.59;100.00
54262;BME280;40174;52.364;6.452;2023-09-07T06:11:57;101833.97;;;15.54;100.00
54262;BME280;40174;52.364;6.452;2023-09-07T06:14:25;101840.31;;;15.63;100.00
54262;BME280;40174;52.364;6.452;2023-09-07T06:16:51;101846.22;;;15.67;100.00
54262;BME280;40174;52.364;6.452;2023-09-07T06:19:18;101845.50;;;15.65;100.00
54262;BME280;40174;52.364;6.452;2023-09-07T06:21:45;101850.44;;;15.69;100.00
54262;BME280;40174;52.364;6.452;2023-09-07T06:24:12;101846.72;;;15.72;100.00
54262;BME280;40174;52.364;6.452;2023-09-07T06:26:40;101848.81;;;15.78;100.00
54262;BME280;40174;52.364;6.452;2023-09-07T06:29:08;101858.38;;;15.80;100.00
54262;BME280;40174;52.364;6.452;2023-09-07T06:31:36;101855.34;;;15.85;100.00
54262;BME280;40174;52.364;6.452;2023-09-07T06:34:03;101856.91;;;15.88;100.00
54262;BME280;40174;52.364;6.452;2023-09-07T06:36:30;101856.50;;;15.92;100.00
54262;BME280;40174;52.364;6.452;2023-09-07T06:38:57;101850.59;;;15.98;100.00
54262;BME280;40174;52.364;6.452;2023-09-07T06:41:24;101849.94;;;16.06;100.00
54262;BME280;40174;52.364;6.452;2023-09-07T06:43:52;101850.50;;;16.10;100.00
54262;BME280;40174;52.364;6.452;2023-09-07T06:46:18;101850.81;;;16.16;100.00
54262;BME280;40174;52.364;6.452;2023-09-07T06:48:46;101848.59;;;16.21;100.00
54262;BME280;40174;52.364;6.452;2023-09-07T06:51:14;101858.03;;;16.26;100.00
54262;BME280;40174;52.364;6.452;2023-09-07T06:53:41;101857.22;;;16.35;100.00
54262;BME280;40174;52.364;6.452;2023-09-07T06:56:08;101866.34;;;16.42;100.00
54262;BME280;40174;52.364;6.452;2023-09-07T06:58:36;101858.13;;;16.55;100.00
54262;BME280;40174;52.364;6.452;2023-09-07T07:01:02;101860.63;;;16.56;100.00
54262;BME280;40174;52.364;6.452;2023-09-07T07:03:30;101860.78;;;16.65;100.00
54262;BME280;40174;52.364;6.452;2023-09-07T07:05:58;101864.34;;;16.75;100.00
54262;BME280;40174;52.364;6.452;2023-09-07T07:08:25;101860.28;;;16.80;100.00
54262;BME280;40174;52.364;6.452;2023-09-07T07:10:52;101863.25;;;16.87;100.00
54262;BME280;40174;52.364;6.452;2023-09-07T07:13:19;101871.53;;;16.94;100.00
54262;BME280;40174;52.364;6.452;2023-09-07T07:15:46;101877.28;;;16.99;100.00
54262;BME280;40174;52.364;6.452;2023-09-07T07:18:13;101868.19;;;17.11;100.00
54262;BME280;40174;52.364;6.452;2023-09-07T07:20:40;101865.06;;;17.16;100.00
54262;BME280;40174;52.364;6.452;2023-09-07T07:23:09;101870.16;;;17.29;100.00
54262;BME280;40174;52.364;6.452;2023-09-07T07:25:36;101867.59;;;17.37;100.00
54262;BME280;40174;52.364;6.452;2023-09-07T07:28:04;101867.16;;;17.41;100.00
54262;BME280;40174;52.364;6.452;2023-09-07T07:30:33;101856.19;;;17.44;100.00
54262;BME280;40174;52.364;6.452;2023-09-07T07:33:00;101870.50;;;17.53;100.00
54262;BME280;40174;52.364;6.452;2023-09-07T07:35:29;101858.97;;;17.62;100.00
54262;BME280;40174;52.364;6.452;2023-09-07T07:37:56;101858.53;;;17.67;100.00
54262;BME280;40174;52.364;6.452;2023-09-07T07:40:25;101864.84;;;17.76;100.00
54262;BME280;40174;52.364;6.452;2023-09-07T07:42:53;101871.72;;;17.88;100.00
54262;BME280;40174;52.364;6.452;2023-09-07T07:45:22;101877.19;;;17.96;100.00
54262;BME280;40174;52.364;6.452;2023-09-07T07:47:50;101871.66;;;18.07;100.00
54262;BME280;40174;52.364;6.452;2023-09-07T07:50:18;101870.22;;;18.13;100.00
54262;BME280;40174;52.364;6.452;2023-09-07T07:52:45;101873.13;;;18.30;100.00
54262;BME280;40174;52.364;6.452;2023-09-07T07:55:13;101868.66;;;18.48;100.00
54262;BME280;40174;52.364;6.452;2023-09-07T07:57:42;101872.66;;;18.62;100.00
54262;BME280;40174;52.364;6.452;2023-09-07T08:00:11;101872.88;;;18.68;100.00
54262;BME280;40174;52.364;6.452;2023-09-07T08:02:48;101871.88;;;18.79;100.00
54262;BME280;40174;52.364;6.452;2023-09-07T08:05:15;101870.13;;;18.88;100.00
54262;BME280;40174;52.364;6.452;2023-09-07T08:07:42;101873.78;;;19.05;100.00
54262;BME280;40174;52.364;6.452;2023-09-07T08:10:09;101880.41;;;19.19;100.00
54262;BME280;40174;52.364;6.452;2023-09-07T08:12:36;101867.47;;;19.32;100.00
54262;BME280;40174;52.364;6.452;2023-09-07T08:15:07;101872.44;;;19.45;100.00
54262;BME280;40174;52.364;6.452;2023-09-07T08:17:33;101870.03;;;19.60;100.00
54262;BME280;40174;52.364;6.452;2023-09-07T08:20:00;101868.16;;;19.78;100.00
54262;BME280;40174;52.364;6.452;2023-09-07T08:22:28;101866.25;;;19.97;100.00
54262;BME280;40174;52.364;6.452;2023-09-07T08:24:55;101867.19;;;20.22;100.00
54262;BME280;40174;52.364;6.452;2023-09-07T08:27:24;101863.72;;;20.38;100.00
54262;BME280;40174;52.364;6.452;2023-09-07T08:29:53;101859.13;;;20.64;100.00
54262;BME280;40174;52.364;6.452;2023-09-07T08:32:22;101862.03;;;20.87;100.00
54262;BME280;40174;52.364;6.452;2023-09-07T08:34:48;101866.94;;;21.08;100.00
54262;BME280;40174;52.364;6.452;2023-09-07T08:37:16;101860.06;;;21.30;100.00
54262;BME280;40174;52.364;6.452;2023-09-07T08:39:42;101865.59;;;21.53;100.00
54262;BME280;40174;52.364;6.452;2023-09-07T08:42:09;101871.09;;;21.76;100.00
54262;BME280;40174;52.364;6.452;2023-09-07T08:44:37;101865.94;;;22.06;100.00
54262;BME280;40174;52.364;6.452;2023-09-07T08:47:05;101869.44;;;22.31;100.00
54262;BME280;40174;52.364;6.452;2023-09-07T08:49:34;101870.81;;;22.58;100.00
54262;BME280;40174;52.364;6.452;2023-09-07T08:52:02;101870.81;;;22.81;100.00
54262;BME280;40174;52.364;6.452;2023-09-07T08:54:30;101870.00;;;23.04;100.00
54262;BME280;40174;52.364;6.452;2023-09-07T08:56:58;101866.66;;;23.25;100.00
54262;BME280;40174;52.364;6.452;2023-09-07T08:59:25;101861.38;;;23.47;97.78
54262;BME280;40174;52.364;6.452;2023-09-07T09:01:56;101869.06;;;23.73;99.44
54262;BME280;40174;52.364;6.452;2023-09-07T09:04:23;101865.47;;;23.95;97.90
54262;BME280;40174;52.364;6.452;2023-09-07T09:06:52;101872.16;;;24.14;94.36
54262;BME280;40174;52.364;6.452;2023-09-07T09:09:22;101872.03;;;24.37;93.34
54262;BME280;40174;52.364;6.452;2023-09-07T09:11:50;101863.63;;;24.62;93.36
54262;BME280;40174;52.364;6.452;2023-09-07T09:14:16;101859.91;;;24.84;91.24
54262;BME280;40174;52.364;6.452;2023-09-07T09:16:48;101862.47;;;25.14;92.88
54262;BME280;40174;52.364;6.452;2023-09-07T09:19:16;101860.97;;;25.33;90.28
54262;BME280;40174;52.364;6.452;2023-09-07T09:21:44;101864.81;;;25.45;84.41
54262;BME280;40174;52.364;6.452;2023-09-07T09:24:12;101861.22;;;25.66;80.53
54262;BME280;40174;52.364;6.452;2023-09-07T09:26:40;101870.50;;;25.85;82.65
54262;BME280;40174;52.364;6.452;2023-09-07T09:29:09;101861.06;;;26.09;82.37
54262;BME280;40174;52.364;6.452;2023-09-07T09:31:36;101864.06;;;26.28;81.52
54262;BME280;40174;52.364;6.452;2023-09-07T09:34:03;101864.81;;;26.57;82.15
54262;BME280;40174;52.364;6.452;2023-09-07T09:36:33;101863.19;;;26.75;76.23
54262;BME280;40174;52.364;6.452;2023-09-07T09:38:59;101867.59;;;26.96;75.15
54262;BME280;40174;52.364;6.452;2023-09-07T09:41:28;101863.44;;;27.14;76.68
54262;BME280;40174;52.364;6.452;2023-09-07T09:43:56;101862.41;;;27.28;73.42
54262;BME280;40174;52.364;6.452;2023-09-07T09:46:24;101865.13;;;27.42;71.28
54262;BME280;40174;52.364;6.452;2023-09-07T09:48:51;101856.97;;;27.55;70.44
54262;BME280;40174;52.364;6.452;2023-09-07T09:51:18;101848.81;;;27.62;73.45
54262;BME280;40174;52.364;6.452;2023-09-07T09:53:45;101852.34;;;27.69;70.58
54262;BME280;40174;52.364;6.452;2023-09-07T09:56:14;101851.25;;;27.96;70.59
54262;BME280;40174;52.364;6.452;2023-09-07T09:58:43;101841.34;;;28.15;67.11
54262;BME280;40174;52.364;6.452;2023-09-07T10:01:10;101844.81;;;28.36;70.38
54262;BME280;40174;52.364;6.452;2023-09-07T10:03:42;101841.69;;;28.32;70.50
54262;BME280;40174;52.364;6.452;2023-09-07T10:06:12;101844.16;;;28.47;66.21
54262;BME280;40174;52.364;6.452;2023-09-07T10:08:52;101844.28;;;28.66;68.94
54262;BME280;40174;52.364;6.452;2023-09-07T10:11:26;101838.06;;;28.84;65.63
54262;BME280;40174;52.364;6.452;2023-09-07T10:13:58;101832.78;;;28.89;66.23
54262;BME280;40174;52.364;6.452;2023-09-07T10:16:25;101831.47;;;28.98;64.38
54262;BME280;40174;52.364;6.452;2023-09-07T10:18:53;101836.25;;;29.28;65.99
54262;BME280;40174;52.364;6.452;2023-09-07T10:21:23;101830.63;;;29.48;64.64
54262;BME280;40174;52.364;6.452;2023-09-07T10:23:51;101833.28;;;29.54;61.85
54262;BME280;40174;52.364;6.452;2023-09-07T10:26:18;101829.16;;;29.70;63.72
54262;BME280;40174;52.364;6.452;2023-09-07T10:28:47;101834.06;;;29.98;60.58
54262;BME280;40174;52.364;6.452;2023-09-07T10:31:18;101837.69;;;29.92;57.98
54262;BME280;40174;52.364;6.452;2023-09-07T10:33:45;101831.94;;;30.00;57.25
54262;BME280;40174;52.364;6.452;2023-09-07T10:36:21;101833.16;;;30.04;55.84
54262;BME280;40174;52.364;6.452;2023-09-07T10:38:48;101825.72;;;30.12;53.32
54262;BME280;40174;52.364;6.452;2023-09-07T10:41:15;101822.38;;;30.28;54.17
54262;BME280;40174;52.364;6.452;2023-09-07T10:43:47;101826.47;;;30.49;53.34
54262;BME280;40174;52.364;6.452;2023-09-07T10:46:18;101826.03;;;30.52;51.72
54262;BME280;40174;52.364;6.452;2023-09-07T10:48:45;101825.47;;;30.74;53.64
54262;BME280;40174;52.364;6.452;2023-09-07T10:51:12;101825.16;;;30.82;50.64
54262;BME280;40174;52.364;6.452;2023-09-07T10:53:39;101816.97;;;30.82;51.16
54262;BME280;40174;52.364;6.452;2023-09-07T10:56:06;101819.84;;;30.87;50.13
54262;BME280;40174;52.364;6.452;2023-09-07T10:58:35;101814.66;;;31.09;49.69
54262;BME280;40174;52.364;6.452;2023-09-07T11:01:04;101817.13;;;31.22;49.06
54262;BME280;40174;52.364;6.452;2023-09-07T11:03:32;101821.44;;;31.30;47.67
54262;BME280;40174;52.364;6.452;2023-09-07T11:06:04;101823.31;;;31.29;45.98
54262;BME280;40174;52.364;6.452;2023-09-07T11:08:32;101826.88;;;31.54;48.28
54262;BME280;40174;52.364;6.452;2023-09-07T11:11:00;101810.88;;;31.57;45.72
54262;BME280;40174;52.364;6.452;2023-09-07T11:13:28;101811.16;;;31.73;47.76
54262;BME280;40174;52.364;6.452;2023-09-07T11:15:57;101806.19;;;31.69;45.72
54262;BME280;40174;52.364;6.452;2023-09-07T11:18:24;101809.63;;;31.77;45.09
54262;BME280;40174;52.364;6.452;2023-09-07T11:20:53;101806.59;;;31.90;44.55
54262;BME280;40174;52.364;6.452;2023-09-07T11:23:21;101809.00;;;31.98;43.83
54262;BME280;40174;52.364;6.452;2023-09-07T11:25:49;101800.84;;;32.15;43.37
54262;BME280;40174;52.364;6.452;2023-09-07T11:28:17;101801.63;;;31.99;41.23
54262;BME280;40174;52.364;6.452;2023-09-07T11:30:51;101792.41;;;31.76;41.91
54262;BME280;40174;52.364;6.452;2023-09-07T11:33:18;101787.25;;;31.92;42.05
54262;BME280;40174;52.364;6.452;2023-09-07T11:35:45;101789.66;;;32.17;43.23
54262;BME280;40174;52.364;6.452;2023-09-07T11:38:16;101790.09;;;32.25;43.04
54262;BME280;40174;52.364;6.452;2023-09-07T11:40:43;101786.97;;;32.50;43.22
54262;BME280;40174;52.364;6.452;2023-09-07T11:43:10;101794.31;;;32.62;40.85
54262;BME280;40174;52.364;6.452;2023-09-07T11:45:38;101788.44;;;32.53;39.83
54262;BME280;40174;52.364;6.452;2023-09-07T11:48:05;101784.34;;;32.56;40.38
54262;BME280;40174;52.364;6.452;2023-09-07T11:50:33;101786.59;;;32.76;40.29
54262;BME280;40174;52.364;6.452;2023-09-07T11:53:00;101778.75;;;32.96;40.25
54262;BME280;40174;52.364;6.452;2023-09-07T11:55:28;101777.91;;;33.12;39.79
54262;BME280;40174;52.364;6.452;2023-09-07T11:57:55;101779.31;;;33.15;39.29
54262;BME280;40174;52.364;6.452;2023-09-07T12:00:22;101770.84;;;33.17;39.57
54262;BME280;40174;52.364;6.452;2023-09-07T12:02:48;101773.50;;;33.11;39.99
54262;BME280;40174;52.364;6.452;2023-09-07T12:05:15;101774.25;;;33.07;38.62
54262;BME280;40174;52.364;6.452;2023-09-07T12:07:44;101772.31;;;33.24;38.35
54262;BME280;40174;52.364;6.452;2023-09-07T12:10:11;101766.47;;;33.38;38.45
54262;BME280;40174;52.364;6.452;2023-09-07T12:12:40;101770.13;;;33.43;38.35
54262;BME280;40174;52.364;6.452;2023-09-07T12:15:08;101769.09;;;33.49;37.02
54262;BME280;40174;52.364;6.452;2023-09-07T12:17:37;101753.75;;;33.48;37.11
54262;BME280;40174;52.364;6.452;2023-09-07T12:20:05;101754.81;;;33.47;38.19
54262;BME280;40174;52.364;6.452;2023-09-07T12:22:36;101757.47;;;33.59;37.73
54262;BME280;40174;52.364;6.452;2023-09-07T12:25:03;101748.91;;;33.78;38.46
54262;BME280;40174;52.364;6.452;2023-09-07T12:27:32;101757.25;;;33.88;36.58
54262;BME280;40174;52.364;6.452;2023-09-07T12:30:01;101746.47;;;33.81;37.48
54262;BME280;40174;52.364;6.452;2023-09-07T12:32:34;101747.00;;;34.05;37.40
54262;BME280;40174;52.364;6.452;2023-09-07T12:35:01;101745.03;;;34.01;36.50
54262;BME280;40174;52.364;6.452;2023-09-07T12:37:28;101745.09;;;34.06;37.07
54262;BME280;40174;52.364;6.452;2023-09-07T12:39:55;101743.38;;;34.22;37.88
54262;BME280;40174;52.364;6.452;2023-09-07T12:42:21;101740.31;;;34.18;36.89
54262;BME280;40174;52.364;6.452;2023-09-07T12:44:48;101740.91;;;34.25;36.67